createdAt,value
2018-09-22T00:00:47.090Z,20.91
2018-09-22T00:01:57.163Z,21.03
2018-09-22T00:03:07.301Z,21.09
2018-09-22T00:04:17.375Z,21.06
2018-09-22T00:05:27.457Z,21.08
2018-09-22T00:06:37.533Z,21.06
2018-09-22T00:07:47.598Z,21.11
2018-09-22T00:08:57.731Z,21.11
2018-09-22T00:10:07.801Z,21.15
2018-09-22T00:11:17.627Z,21.23
2018-09-22T00:12:27.705Z,21.15
2018-09-22T00:13:37.780Z,21.16
2018-09-22T00:14:47.336Z,21.25
2018-09-22T00:15:57.405Z,21.19
2018-09-22T00:17:07.488Z,21.27
2018-09-22T00:18:17.571Z,21.21
2018-09-22T00:19:27.413Z,21.3
2018-09-22T00:20:37.555Z,21.36
2018-09-22T00:21:47.715Z,21.33
2018-09-22T00:22:57.981Z,21.36
2018-09-22T00:24:08.078Z,21.36
2018-09-22T00:25:18.147Z,21.37
2018-09-22T00:26:28.295Z,21.45
2018-09-22T00:27:38.158Z,21.41
2018-09-22T00:28:48.219Z,21.43
2018-09-22T00:29:58.299Z,21.46
2018-09-22T00:31:08.129Z,21.41
2018-09-22T00:32:17.928Z,21.41
2018-09-22T00:33:28.038Z,21.4
2018-09-22T00:34:37.882Z,21.48
2018-09-22T00:35:47.745Z,21.37
2018-09-22T00:36:57.837Z,21.4
2018-09-22T00:38:08.016Z,21.37
2018-09-22T00:39:18.101Z,21.46
2018-09-22T00:40:28.162Z,21.38
2018-09-22T00:41:37.990Z,21.34
2018-09-22T00:42:48.089Z,21.37
2018-09-22T00:43:58.228Z,21.31
2018-09-22T00:45:08.302Z,21.22
2018-09-22T00:46:18.380Z,21.22
2018-09-22T00:47:27.929Z,21.21
2018-09-22T00:48:38.016Z,21.04
2018-09-22T00:49:48.105Z,20.94
2018-09-22T00:50:58.200Z,20.81
2018-09-22T00:52:08.881Z,20.72
2018-09-22T00:53:18.979Z,20.49
2018-09-22T00:54:28.835Z,20.4
2018-09-22T00:55:38.408Z,20.23
2018-09-22T00:56:48.491Z,20.01
2018-09-22T00:57:58.571Z,19.82
2018-09-22T00:59:08.645Z,19.78
2018-09-22T01:00:18.709Z,19.57
2018-09-22T01:01:28.835Z,19.3
2018-09-22T01:02:38.662Z,19.15
2018-09-22T01:03:48.754Z,19.06
2018-09-22T01:04:58.826Z,18.87
2018-09-22T01:06:08.846Z,18.78
2018-09-22T01:07:18.979Z,18.65
2018-09-22T01:08:29.060Z,18.54
2018-09-22T01:09:39.191Z,18.45
2018-09-22T01:10:49.002Z,18.29
2018-09-22T01:11:59.091Z,18.17
2018-09-22T01:13:08.956Z,18.17
2018-09-22T01:14:19.047Z,18.19
2018-09-22T01:15:28.658Z,18.1
2018-09-22T01:16:38.938Z,17.99
2018-09-22T01:17:48.754Z,17.98
2018-09-22T01:18:58.878Z,17.86
2018-09-22T01:20:08.963Z,17.81
2018-09-22T01:21:19.045Z,17.63
2018-09-22T01:22:28.857Z,17.66
2018-09-22T01:23:38.658Z,17.58
2018-09-22T01:24:48.805Z,17.54
2018-09-22T01:25:58.877Z,17.52
2018-09-22T01:27:08.700Z,17.47
2018-09-22T01:28:18.780Z,17.38
2018-09-22T01:29:28.844Z,17.39
2018-09-22T01:30:38.674Z,17.35
2018-09-22T01:31:48.778Z,17.28
2018-09-22T01:32:58.593Z,17.28
2018-09-22T01:34:08.680Z,17.28
2018-09-22T01:35:18.756Z,17.28
2018-09-22T01:36:28.575Z,17.28
2018-09-22T01:37:38.652Z,17.28
2018-09-22T01:38:48.258Z,17.31
2018-09-22T01:39:58.393Z,17.21
2018-09-22T01:41:11.190Z,17.24
2018-09-22T01:42:21.344Z,17.3
2018-09-22T01:43:31.167Z,17.31
2018-09-22T01:44:41.235Z,17.32
2018-09-22T01:45:51.307Z,17.38
2018-09-22T01:47:01.387Z,17.27
2018-09-22T01:48:11.567Z,17.21
2018-09-22T01:49:21.634Z,17.22
2018-09-22T01:50:31.700Z,17.22
2018-09-22T01:51:41.790Z,17.21
2018-09-22T01:52:51.655Z,17.22
2018-09-22T01:54:01.808Z,17.25
2018-09-22T01:55:11.637Z,17.21
2018-09-22T01:56:21.708Z,17.27
2018-09-22T01:57:31.795Z,17.3
2018-09-22T01:58:41.869Z,17.15
2018-09-22T01:59:51.950Z,17.12
2018-09-22T02:01:02.059Z,17.18
2018-09-22T02:02:12.130Z,17.15
2018-09-22T02:03:21.934Z,17.07
2018-09-22T02:04:31.996Z,16.94
2018-09-22T02:05:42.120Z,16.94
2018-09-22T02:06:52.183Z,16.81
2018-09-22T02:08:02.290Z,16.8
2018-09-22T02:09:12.114Z,16.7
2018-09-22T02:10:22.184Z,16.7
2018-09-22T02:11:32.063Z,16.67
2018-09-22T02:12:41.894Z,16.69
2018-09-22T02:13:51.988Z,16.66
2018-09-22T02:15:02.050Z,16.58
2018-09-22T02:16:11.639Z,16.54
2018-09-22T02:17:21.483Z,16.62
2018-09-22T02:18:31.536Z,16.58
2018-09-22T02:19:41.638Z,16.57
2018-09-22T02:20:51.428Z,16.49
2018-09-22T02:22:01.505Z,16.37
2018-09-22T02:23:11.358Z,16.39
2018-09-22T02:24:21.453Z,16.45
2018-09-22T02:25:31.274Z,16.4
2018-09-22T02:26:41.367Z,16.37
2018-09-22T02:27:51.433Z,16.29
2018-09-22T02:29:01.525Z,16.32
2018-09-22T02:30:11.622Z,16.29
2018-09-22T02:31:21.697Z,16.25
2018-09-22T02:32:31.769Z,16.32
2018-09-22T02:33:41.596Z,16.26
2018-09-22T02:34:51.671Z,16.18
2018-09-22T02:36:01.754Z,16.21
2018-09-22T02:37:11.828Z,16.25
2018-09-22T02:38:21.943Z,16.22
2018-09-22T02:39:32.032Z,16.25
2018-09-22T02:40:42.159Z,16.17
2018-09-22T02:41:52.232Z,16.14
2018-09-22T02:43:02.318Z,16.17
2018-09-22T02:44:12.388Z,16.16
2018-09-22T02:45:22.461Z,16.18
2018-09-22T02:46:32.251Z,16.11
2018-09-22T02:47:42.326Z,16.07
2018-09-22T02:48:52.143Z,16.04
2018-09-22T02:50:01.974Z,16.04
2018-09-22T02:51:12.056Z,16
2018-09-22T02:52:22.179Z,15.93
2018-09-22T02:53:32.245Z,15.93
2018-09-22T02:54:42.071Z,15.86
2018-09-22T02:55:52.140Z,15.78
2018-09-22T02:57:02.282Z,15.81
2018-09-22T02:58:12.406Z,15.78
2018-09-22T02:59:22.476Z,15.8
2018-09-22T03:00:32.295Z,15.75
2018-09-22T03:01:42.373Z,15.83
2018-09-22T03:02:52.189Z,15.86
2018-09-22T03:34:44.510Z,13.86
2018-09-22T03:35:54.568Z,13.78
2018-09-22T03:37:04.646Z,13.79
2018-09-22T03:38:14.727Z,13.78
2018-09-22T03:39:24.828Z,13.81
2018-09-22T03:40:34.946Z,13.84
2018-09-22T03:41:45.022Z,13.97
2018-09-22T03:42:55.100Z,13.99
2018-09-22T03:44:06.195Z,14.11
2018-09-22T03:45:16.269Z,14.26
2018-09-22T03:46:26.083Z,14.33
2018-09-22T03:47:36.164Z,14.42
2018-09-22T03:48:45.964Z,14.46
2018-09-22T03:49:56.044Z,14.7
2018-09-22T03:51:08.841Z,14.66
2018-09-22T03:52:18.968Z,14.7
2018-09-22T03:53:29.061Z,14.79
2018-09-22T03:54:39.143Z,14.9
2018-09-22T03:55:49.214Z,14.95
2018-09-22T03:56:58.767Z,14.87
2018-09-22T03:58:08.862Z,14.95
2018-09-22T03:59:18.940Z,14.89
2018-09-22T04:00:29.032Z,14.93
2018-09-22T04:01:39.130Z,14.89
2018-09-22T04:02:48.944Z,14.86
2018-09-22T04:03:59.100Z,14.89
2018-09-22T04:05:08.911Z,14.9
2018-09-22T04:06:18.981Z,14.86
2018-09-22T04:07:29.034Z,14.93
2018-09-22T04:08:39.125Z,14.97
2018-09-22T04:09:49.180Z,14.93
2018-09-22T04:10:59.240Z,14.86
2018-09-22T04:12:09.325Z,14.97
2018-09-22T04:13:19.399Z,14.89
2018-09-22T04:14:29.481Z,14.89
2018-09-22T04:15:39.618Z,14.86
2018-09-22T04:16:49.430Z,14.9
2018-09-22T04:17:59.496Z,14.9
2018-09-22T04:19:09.316Z,14.87
2018-09-22T04:20:19.406Z,14.98
2018-09-22T04:21:29.251Z,14.97
2018-09-22T04:22:39.346Z,14.94
2018-09-22T04:23:49.429Z,14.93
2018-09-22T04:24:59.340Z,14.93
2018-09-22T04:26:09.992Z,14.74
2018-09-22T04:27:19.809Z,14.77
2018-09-22T04:28:29.627Z,14.82
2018-09-22T04:29:39.432Z,14.75
2018-09-22T04:30:49.546Z,14.75
2018-09-22T04:31:59.613Z,14.69
2018-09-22T04:33:09.771Z,14.64
2018-09-22T04:34:19.959Z,14.67
2018-09-22T04:35:30.053Z,14.66
2018-09-22T04:36:40.125Z,14.61
2018-09-22T04:37:50.212Z,14.61
2018-09-22T04:39:00.727Z,14.59
2018-09-22T04:40:10.802Z,14.6
2018-09-22T04:41:20.888Z,14.6
2018-09-22T04:42:30.970Z,14.56
2018-09-22T04:43:41.034Z,14.61
2018-09-22T04:44:51.115Z,14.64
2018-09-22T04:46:02.397Z,14.57
2018-09-22T04:47:11.687Z,14.56
2018-09-22T04:48:21.758Z,14.46
2018-09-22T04:49:31.572Z,14.63
2018-09-22T04:50:41.664Z,14.59
2018-09-22T04:51:51.475Z,14.52
2018-09-22T04:53:01.565Z,14.63
2018-09-22T04:54:11.143Z,14.67
2018-09-22T04:55:21.210Z,14.66
2018-09-22T04:56:31.024Z,14.71
2018-09-22T04:57:41.086Z,14.69
2018-09-22T04:58:50.900Z,14.63
2018-09-22T05:00:02.433Z,14.69
2018-09-22T05:01:12.263Z,14.61
2018-09-22T05:02:22.330Z,14.7
2018-09-22T05:03:32.158Z,14.69
2018-09-22T05:04:42.281Z,14.7
2018-09-22T05:05:52.369Z,14.77
2018-09-22T05:07:02.452Z,14.77
2018-09-22T05:08:12.533Z,14.67
2018-09-22T05:09:22.355Z,14.66
2018-09-22T05:10:32.438Z,14.66
2018-09-22T05:11:42.535Z,14.66
2018-09-22T05:12:52.616Z,14.67
2018-09-22T05:14:02.699Z,14.69
2018-09-22T05:15:12.814Z,14.61
2018-09-22T05:16:22.887Z,14.6
2018-09-22T05:17:33.018Z,14.59
2018-09-22T05:18:42.559Z,14.56
2018-09-22T05:19:52.694Z,14.61
2018-09-22T05:21:02.508Z,14.66
2018-09-22T05:22:12.584Z,14.66
2018-09-22T05:23:22.663Z,14.61
2018-09-22T05:24:32.792Z,14.69
2018-09-22T05:25:43.049Z,14.61
2018-09-22T05:26:53.114Z,14.64
2018-09-22T05:28:05.040Z,14.64
2018-09-22T05:29:15.125Z,14.66
2018-09-22T05:30:25.197Z,14.71
2018-09-22T05:31:35.111Z,14.75
2018-09-22T05:32:45.209Z,14.74
2018-09-22T05:33:55.287Z,14.67
2018-09-22T05:35:04.859Z,14.7
2018-09-22T05:36:14.945Z,14.67
2018-09-22T05:37:24.775Z,14.67
2018-09-22T05:38:34.861Z,14.67
2018-09-22T05:39:44.954Z,14.7
2018-09-22T05:40:55.036Z,14.74
2018-09-22T05:42:04.925Z,14.75
2018-09-22T05:43:15.016Z,14.74
2018-09-22T05:44:25.112Z,14.75
2018-09-22T05:45:35.205Z,14.8
2018-09-22T05:46:45.012Z,14.85
2018-09-22T05:47:55.128Z,14.8
2018-09-22T05:49:06.555Z,14.77
2018-09-22T05:50:16.655Z,14.89
2018-09-22T05:51:26.726Z,14.98
2018-09-22T05:52:36.789Z,14.95
2018-09-22T05:53:46.846Z,15.01
2018-09-22T05:54:56.953Z,15.07
2018-09-22T05:56:07.014Z,15.12
2018-09-22T05:57:17.097Z,15.15
2018-09-22T05:58:27.166Z,15.18
2018-09-22T05:59:37.246Z,15.23
2018-09-22T06:00:47.301Z,15.26
2018-09-22T06:01:57.383Z,15.27
2018-09-22T06:03:07.472Z,15.27
2018-09-22T06:04:17.566Z,15.38
2018-09-22T06:05:27.646Z,15.33
2018-09-22T06:06:37.535Z,15.4
2018-09-22T06:07:47.643Z,15.37
2018-09-22T06:08:57.455Z,15.35
2018-09-22T06:10:07.561Z,15.38
2018-09-22T06:11:17.629Z,15.41
2018-09-22T06:12:27.453Z,15.45
2018-09-22T06:13:37.275Z,15.55
2018-09-22T06:14:47.359Z,15.65
2018-09-22T06:15:57.166Z,15.67
2018-09-22T06:17:07.248Z,15.81
2018-09-22T06:18:17.322Z,15.84
2018-09-22T06:19:27.128Z,15.83
2018-09-22T06:20:37.216Z,15.83
2018-09-22T06:21:47.301Z,15.83
2018-09-22T06:22:57.420Z,15.84
2018-09-22T06:24:07.706Z,15.84
2018-09-22T06:25:17.526Z,15.98
2018-09-22T06:26:27.625Z,15.99
2018-09-22T06:27:37.681Z,16.11
2018-09-22T06:28:47.585Z,16.11
2018-09-22T06:29:57.894Z,16.22
2018-09-22T06:31:07.725Z,16.36
2018-09-22T06:32:17.803Z,16.36
2018-09-22T06:33:27.884Z,16.42
2018-09-22T06:34:37.730Z,16.47
2018-09-22T06:35:47.867Z,16.45
2018-09-22T06:36:57.937Z,16.48
2018-09-22T06:38:07.960Z,16.52
2018-09-22T06:39:17.772Z,16.76
2018-09-22T06:40:27.904Z,16.97
2018-09-22T06:41:38.136Z,17.13
2018-09-22T06:42:47.960Z,17.28
2018-09-22T06:43:58.056Z,17.24
2018-09-22T06:45:09.135Z,17.31
2018-09-22T06:46:19.197Z,17.31
2018-09-22T06:47:28.509Z,17.36
2018-09-22T06:48:38.592Z,17.35
2018-09-22T06:49:48.656Z,17.21
2018-09-22T06:50:58.473Z,17.24
2018-09-22T06:52:08.559Z,17.24
2018-09-22T06:53:18.388Z,17.25
2018-09-22T06:54:28.476Z,17.4
2018-09-22T06:55:38.564Z,17.38
2018-09-22T06:56:48.381Z,17.4
2018-09-22T06:57:58.172Z,17.47
2018-09-22T06:59:09.347Z,17.45
2018-09-22T07:00:19.432Z,17.55
2018-09-22T07:01:29.236Z,17.58
2018-09-22T07:02:39.049Z,17.66
2018-09-22T07:03:49.138Z,17.69
2018-09-22T07:04:59.006Z,17.83
2018-09-22T07:06:09.100Z,17.81
2018-09-22T07:07:18.926Z,17.86
2018-09-22T07:08:29.003Z,17.86
2018-09-22T07:09:39.175Z,17.92
2018-09-22T07:10:49.314Z,17.94
2018-09-22T07:11:59.384Z,18.08
2018-09-22T07:13:09.469Z,18.16
2018-09-22T07:14:19.574Z,18.17
2018-09-22T07:15:29.647Z,18.32
2018-09-22T07:16:39.768Z,18.47
2018-09-22T07:17:49.599Z,18.63
2018-09-22T07:18:59.681Z,18.79
2018-09-22T07:20:10.623Z,18.94
2018-09-22T07:21:20.712Z,19.12
2018-09-22T07:22:30.849Z,19.24
2018-09-22T07:23:40.935Z,19.57
2018-09-22T07:24:51.015Z,19.68
2018-09-22T07:26:01.083Z,19.82
2018-09-22T07:27:11.150Z,19.83
2018-09-22T07:28:21.273Z,20.02
2018-09-22T07:29:31.362Z,20.04
2018-09-22T07:30:41.191Z,20.2
2018-09-22T07:31:51.346Z,20.32
2018-09-22T07:33:01.322Z,20.38
2018-09-22T07:34:11.185Z,20.49
2018-09-22T07:35:21.256Z,20.54
2018-09-22T07:36:31.058Z,20.54
2018-09-22T07:37:40.884Z,20.58
2018-09-22T07:38:50.713Z,20.63
2018-09-22T07:40:02.280Z,20.64
2018-09-22T07:41:12.379Z,20.75
2018-09-22T07:42:22.202Z,20.83
2018-09-22T07:43:32.310Z,20.86
2018-09-22T07:44:42.448Z,20.94
2018-09-22T07:45:52.611Z,21
2018-09-22T07:47:04.885Z,21
2018-09-22T07:48:14.715Z,21.22
2018-09-22T07:49:24.809Z,21.25
2018-09-22T07:50:34.888Z,21.19
2018-09-22T07:51:45.011Z,21.36
2018-09-22T07:52:55.101Z,21.33
2018-09-22T07:54:08.035Z,21.38
2018-09-22T07:55:17.840Z,21.43
2018-09-22T07:56:27.928Z,21.48
2018-09-22T07:57:37.788Z,21.58
2018-09-22T07:58:47.602Z,21.52
2018-09-22T07:59:57.159Z,21.56
2018-09-22T08:01:07.002Z,21.53
2018-09-22T08:02:16.847Z,21.48
2018-09-22T08:03:26.468Z,21.45
2018-09-22T08:04:36.556Z,21.68
2018-09-22T08:05:46.678Z,21.83
2018-09-22T08:06:56.510Z,21.99
2018-09-22T08:08:07.231Z,22.24
2018-09-22T08:09:17.304Z,22.44
2018-09-22T08:10:27.399Z,22.61
2018-09-22T08:11:37.375Z,22.71
2018-09-22T08:12:47.369Z,22.78
2018-09-22T08:13:57.476Z,22.89
2018-09-22T08:15:07.632Z,22.88
2018-09-22T08:16:17.739Z,22.81
2018-09-22T08:17:27.871Z,22.64
2018-09-22T08:18:37.984Z,22.57
2018-09-22T08:19:47.558Z,22.45
2018-09-22T08:20:57.392Z,22.26
2018-09-22T08:22:07.231Z,22.26
2018-09-22T08:23:17.341Z,22.26
2018-09-22T08:24:27.189Z,22.16
2018-09-22T08:25:37.002Z,22.16
2018-09-22T08:26:47.136Z,22.3
2018-09-22T08:27:57.241Z,22.42
2018-09-22T08:29:07.322Z,22.6
2018-09-22T08:30:16.883Z,22.7
2018-09-22T08:31:26.718Z,22.59
2018-09-22T08:32:36.808Z,22.7
2018-09-22T08:33:46.915Z,22.57
2018-09-22T08:34:56.999Z,22.76
2018-09-22T08:36:07.561Z,22.81
2018-09-22T08:37:17.722Z,22.91
2018-09-22T08:38:28.028Z,22.92
2018-09-22T08:39:38.105Z,23.07
2018-09-22T08:40:48.173Z,23.16
2018-09-22T08:41:57.726Z,23.24
2018-09-22T08:43:08.022Z,23.22
2018-09-22T08:44:18.113Z,23.15
2018-09-22T08:45:28.220Z,23.1
2018-09-22T08:46:38.325Z,23.03
2018-09-22T08:47:48.418Z,22.97
2018-09-22T08:48:58.514Z,22.91
2018-09-22T08:50:08.927Z,22.81
2018-09-22T08:51:19.376Z,22.63
2018-09-22T08:52:29.462Z,22.6
2018-09-22T08:53:38.757Z,22.6
2018-09-22T08:54:48.849Z,22.63
2018-09-22T08:55:59.039Z,22.6
2018-09-22T08:57:08.858Z,22.57
2018-09-22T08:58:18.999Z,22.61
2018-09-22T08:59:28.563Z,22.73
2018-09-22T09:00:38.740Z,22.81
2018-09-22T09:01:48.841Z,22.84
2018-09-22T09:02:58.957Z,22.96
2018-09-22T09:04:09.058Z,22.91
2018-09-22T09:05:18.903Z,23.1
2018-09-22T09:06:28.752Z,23.06
2018-09-22T09:07:38.583Z,23.14
2018-09-22T09:08:48.690Z,23.22
2018-09-22T09:09:58.786Z,23.35
2018-09-22T09:11:08.612Z,23.53
2018-09-22T09:12:18.782Z,23.56
2018-09-22T09:13:28.717Z,23.52
2018-09-22T09:14:38.709Z,23.56
2018-09-22T09:15:49.032Z,23.53
2018-09-22T09:16:58.984Z,23.55
2018-09-22T09:18:11.137Z,23.52
2018-09-22T09:19:20.934Z,23.6
2018-09-22T09:20:31.023Z,23.64
2018-09-22T09:21:41.117Z,23.77
2018-09-22T09:22:51.213Z,23.79
2018-09-22T09:24:01.306Z,23.89
2018-09-22T09:25:11.177Z,23.96
2018-09-22T09:26:20.995Z,24
2018-09-22T09:27:31.204Z,24.03
2018-09-22T09:28:41.092Z,24
2018-09-22T09:29:50.908Z,23.93
2018-09-22T09:31:00.995Z,23.92
2018-09-22T09:32:11.206Z,23.99
2018-09-22T09:33:21.315Z,23.96
2018-09-22T09:34:31.433Z,23.87
2018-09-22T09:35:41.514Z,24.02
2018-09-22T09:36:51.600Z,23.94
2018-09-22T09:38:01.747Z,23.96
2018-09-22T09:39:11.851Z,23.93
2018-09-22T09:40:21.943Z,24
2018-09-22T09:41:32.015Z,24.02
2018-09-22T09:42:41.844Z,24
2018-09-22T09:43:52.220Z,23.97
2018-09-22T09:45:02.307Z,23.93
2018-09-22T09:46:12.282Z,23.92
2018-09-22T09:47:22.097Z,23.82
2018-09-22T09:48:32.200Z,23.66
2018-09-22T09:49:42.289Z,23.56
2018-09-22T09:50:52.407Z,23.59
2018-09-22T09:52:02.493Z,23.37
2018-09-22T09:53:12.596Z,23.42
2018-09-22T09:54:22.783Z,23.48
2018-09-22T09:55:32.993Z,23.63
2018-09-22T09:56:43.081Z,23.85
2018-09-22T09:57:53.181Z,23.82
2018-09-22T09:59:03.036Z,23.93
2018-09-22T10:00:13.171Z,24.02
2018-09-22T10:01:23.033Z,24
2018-09-22T10:02:33.128Z,24.14
2018-09-22T10:03:43.215Z,24.12
2018-09-22T10:04:53.311Z,24.17
2018-09-22T10:06:03.413Z,24.09
2018-09-22T10:07:13.375Z,24.15
2018-09-22T10:08:23.235Z,24.29
2018-09-22T10:09:33.308Z,24.49
2018-09-22T10:10:43.440Z,24.54
2018-09-22T10:11:53.535Z,24.66
2018-09-22T10:13:03.416Z,24.77
2018-09-22T10:14:13.515Z,24.58
2018-09-22T10:15:23.334Z,24.66
2018-09-22T10:16:33.421Z,24.55
2018-09-22T10:17:43.512Z,24.44
2018-09-22T10:18:53.582Z,24.33
2018-09-22T10:20:03.637Z,24.12
2018-09-22T10:21:13.852Z,24.21
2018-09-22T10:22:23.678Z,24.11
2018-09-22T10:23:33.759Z,24.12
2018-09-22T10:24:43.862Z,24.19
2018-09-22T10:25:54.060Z,24.17
2018-09-22T10:27:05.352Z,24.07
2018-09-22T10:28:15.577Z,23.92
2018-09-22T10:29:25.788Z,24.03
2018-09-22T10:30:35.893Z,23.94
2018-09-22T10:31:45.997Z,23.96
2018-09-22T10:32:56.102Z,23.92
2018-09-22T10:34:07.037Z,24
2018-09-22T10:35:17.127Z,23.9
2018-09-22T10:36:27.198Z,23.9
2018-09-22T10:37:37.297Z,24.07
2018-09-22T10:38:47.382Z,23.96
2018-09-22T10:39:57.649Z,24.07
2018-09-22T10:41:07.731Z,24
2018-09-22T10:42:18.020Z,24.12
2018-09-22T10:43:28.408Z,24.14
2018-09-22T10:44:38.494Z,24.26
2018-09-22T10:45:48.607Z,24.32
2018-09-22T10:46:58.436Z,24.36
2018-09-22T10:48:10.081Z,24.4
2018-09-22T10:49:20.180Z,24.42
2018-09-22T10:50:30.266Z,24.45
2018-09-22T10:51:40.343Z,24.44
2018-09-22T10:52:50.958Z,24.4
2018-09-22T10:54:00.965Z,24.32
2018-09-22T10:55:11.057Z,24.32
2018-09-22T10:56:21.149Z,24.32
2018-09-22T10:57:31.225Z,24.3
2018-09-22T10:58:41.300Z,24.18
2018-09-22T10:59:51.383Z,24.14
2018-09-22T11:01:00.978Z,24.09
2018-09-22T11:02:11.071Z,24.14
2018-09-22T11:03:21.303Z,24.27
2018-09-22T11:04:31.593Z,24.3
2018-09-22T11:05:41.710Z,24.33
2018-09-22T11:06:51.559Z,24.4
2018-09-22T11:08:01.650Z,24.36
2018-09-22T11:09:11.492Z,24.3
2018-09-22T11:10:21.595Z,24.3
2018-09-22T11:11:31.796Z,24.4
2018-09-22T11:12:41.867Z,24.48
2018-09-22T11:13:51.974Z,24.44
2018-09-22T11:15:01.824Z,24.51
2018-09-22T11:16:11.919Z,24.59
2018-09-22T11:17:22.074Z,24.55
2018-09-22T11:18:32.179Z,24.7
2018-09-22T11:19:42.283Z,24.64
2018-09-22T11:20:52.379Z,24.7
2018-09-22T11:22:02.472Z,24.74
2018-09-22T11:23:12.363Z,24.71
2018-09-22T11:24:22.185Z,24.82
2018-09-22T11:25:32.272Z,24.87
2018-09-22T11:26:42.364Z,24.8
2018-09-22T11:27:52.324Z,24.82
2018-09-22T11:29:03.199Z,24.82
2018-09-22T11:30:13.599Z,24.71
2018-09-22T11:31:23.673Z,24.58
2018-09-22T11:32:33.581Z,24.45
2018-09-22T11:33:43.554Z,24.45
2018-09-22T11:34:53.130Z,24.42
2018-09-22T11:36:02.825Z,24.56
2018-09-22T11:37:12.942Z,24.66
2018-09-22T11:38:23.251Z,24.74
2018-09-22T11:39:33.571Z,24.77
2018-09-22T11:40:43.769Z,25
2018-09-22T11:41:53.851Z,25.11
2018-09-22T11:43:03.982Z,25.01
2018-09-22T11:44:14.096Z,25.01
2018-09-22T11:45:24.203Z,25.01
2018-09-22T11:46:34.030Z,24.87
2018-09-22T11:47:44.130Z,24.9
2018-09-22T11:48:53.980Z,24.82
2018-09-22T11:50:05.530Z,24.78
2018-09-22T11:51:15.622Z,24.77
2018-09-22T11:52:25.542Z,24.74
2018-09-22T11:53:35.634Z,24.7
2018-09-22T11:54:45.743Z,24.59
2018-09-22T11:55:55.576Z,24.66
2018-09-22T11:57:05.683Z,24.56
2018-09-22T11:58:15.574Z,24.44
2018-09-22T11:59:25.150Z,24.34
2018-09-22T12:00:35.231Z,24.33
2018-09-22T12:01:45.087Z,24.33
2018-09-22T12:02:54.931Z,24.32
2018-09-22T12:04:05.144Z,24.33
2018-09-22T12:05:15.259Z,24.45
2018-09-22T12:06:25.429Z,24.45
2018-09-22T12:07:35.914Z,24.44
2018-09-22T12:08:46.011Z,24.48
2018-09-22T12:09:56.154Z,24.46
2018-09-22T12:11:06.248Z,24.29
2018-09-22T12:12:16.359Z,24.42
2018-09-22T12:13:26.475Z,24.4
2018-09-22T12:14:36.587Z,24.45
2018-09-22T12:15:46.426Z,24.52
2018-09-22T12:16:56.499Z,24.48
2018-09-22T12:18:08.703Z,24.7
2018-09-22T12:19:18.541Z,24.7
2018-09-22T12:20:28.636Z,24.71
2018-09-22T12:21:38.475Z,24.83
2018-09-22T12:22:48.563Z,24.77
2018-09-22T12:23:58.418Z,24.77
2018-09-22T12:25:08.531Z,24.8
2018-09-22T12:26:18.355Z,24.7
2018-09-22T12:27:28.505Z,24.7
2018-09-22T12:28:38.597Z,24.64
2018-09-22T12:29:48.688Z,24.58
2018-09-22T12:30:58.777Z,24.59
2018-09-22T12:32:09.127Z,24.55
2018-09-22T12:33:19.229Z,24.48
2018-09-22T12:34:29.329Z,24.45
2018-09-22T12:35:39.442Z,24.44
2018-09-22T12:36:49.538Z,24.42
2018-09-22T12:37:59.629Z,24.48
2018-09-22T12:39:09.772Z,24.46
2018-09-22T12:40:19.863Z,24.51
2018-09-22T12:41:29.690Z,24.59
2018-09-22T12:42:39.763Z,24.52
2018-09-22T12:43:49.851Z,24.42
2018-09-22T12:45:00.056Z,24.37
2018-09-22T12:46:09.671Z,24.34
2018-09-22T12:47:19.738Z,24.32
2018-09-22T12:48:29.835Z,24.34
2018-09-22T12:49:39.666Z,24.29
2018-09-22T12:50:49.763Z,24.24
2018-09-22T12:51:59.852Z,24.3
2018-09-22T12:53:09.946Z,24.26
2018-09-22T12:54:19.797Z,24.36
2018-09-22T12:55:29.344Z,24.33
2018-09-22T12:56:39.163Z,24.33
2018-09-22T12:57:49.271Z,24.36
2018-09-22T12:58:59.363Z,24.33
2018-09-22T13:00:09.260Z,24.3
2018-09-22T13:01:19.360Z,24.32
2018-09-22T13:02:29.528Z,24.36
2018-09-22T13:03:39.671Z,24.32
2018-09-22T13:04:49.901Z,24.42
2018-09-22T13:05:59.988Z,24.46
2018-09-22T13:07:10.083Z,24.55
2018-09-22T13:08:20.246Z,24.59
2018-09-22T13:09:30.331Z,24.64
2018-09-22T13:10:40.411Z,24.67
2018-09-22T13:11:50.261Z,24.56
2018-09-22T13:13:00.704Z,24.56
2018-09-22T13:14:10.792Z,24.52
2018-09-22T13:15:20.887Z,24.46
2018-09-22T13:16:30.708Z,24.52
2018-09-22T13:17:40.605Z,24.45
2018-09-22T13:18:50.704Z,24.51
2018-09-22T13:20:02.138Z,24.48
2018-09-22T13:21:12.358Z,24.45
2018-09-22T13:22:22.458Z,24.49
2018-09-22T13:23:32.293Z,24.42
2018-09-22T13:24:42.389Z,24.49
2018-09-22T13:25:52.009Z,24.46
2018-09-22T13:27:01.844Z,24.48
2018-09-22T13:28:11.689Z,24.32
2018-09-22T13:29:21.771Z,24.32
2018-09-22T13:30:31.637Z,24.32
2018-09-22T13:31:41.768Z,24.32
2018-09-22T13:32:51.585Z,24.27
2018-09-22T13:34:01.698Z,24.26
2018-09-22T13:35:11.803Z,24.36
2018-09-22T13:36:21.908Z,24.27
2018-09-22T13:37:31.989Z,24.37
2018-09-22T13:38:42.405Z,24.44
2018-09-22T13:39:52.464Z,24.45
2018-09-22T13:41:04.727Z,24.45
2018-09-22T13:42:14.827Z,24.56
2018-09-22T13:43:24.976Z,24.59
2018-09-22T13:44:35.217Z,24.58
2018-09-22T13:45:45.318Z,24.64
2018-09-22T13:46:55.420Z,24.63
2018-09-22T13:48:07.694Z,24.54
2018-09-22T13:49:17.805Z,24.52
2018-09-22T13:50:28.179Z,24.45
2018-09-22T13:51:37.990Z,24.48
2018-09-22T13:52:47.816Z,24.52
2018-09-22T13:53:57.379Z,24.54
2018-09-22T13:55:07.458Z,24.55
2018-09-22T13:56:17.809Z,24.58
2018-09-22T13:57:28.146Z,24.58
2018-09-22T13:58:37.986Z,24.55
2018-09-22T13:59:47.828Z,24.67
2018-09-22T14:00:57.916Z,24.64
2018-09-22T14:02:08.969Z,24.58
2018-09-22T14:03:19.062Z,24.56
2018-09-22T14:04:29.142Z,24.55
2018-09-22T14:05:38.973Z,24.63
2018-09-22T14:06:48.848Z,24.63
2018-09-22T14:07:58.699Z,24.67
2018-09-22T14:09:08.779Z,24.58
2018-09-22T14:10:19.373Z,24.45
2018-09-22T14:11:29.699Z,24.58
2018-09-22T14:12:39.569Z,24.49
2018-09-22T14:13:49.660Z,24.46
2018-09-22T14:14:59.500Z,24.44
2018-09-22T14:16:09.615Z,24.46
2018-09-22T14:17:19.740Z,24.34
2018-09-22T14:18:29.954Z,24.34
2018-09-22T14:19:39.828Z,24.29
2018-09-22T14:20:49.916Z,24.3
2018-09-22T14:22:00.009Z,24.3
2018-09-22T14:23:10.129Z,24.22
2018-09-22T14:24:20.242Z,24.19
2018-09-22T14:25:30.397Z,24.12
2018-09-22T14:26:40.516Z,24.02
2018-09-22T14:27:50.613Z,23.94
2018-09-22T14:29:00.343Z,24
2018-09-22T14:30:10.568Z,24
2018-09-22T14:31:20.395Z,23.97
2018-09-22T14:32:30.498Z,24.09
2018-09-22T14:33:40.305Z,24.03
2018-09-22T14:34:50.134Z,24.04
2018-09-22T14:36:00.327Z,24.09
2018-09-22T14:37:10.411Z,24.03
2018-09-22T14:38:20.482Z,24.04
2018-09-22T14:39:30.580Z,23.97
2018-09-22T14:40:40.866Z,23.96
2018-09-22T14:41:51.099Z,23.9
2018-09-22T14:43:01.380Z,23.84
2018-09-22T14:44:11.475Z,23.93
2018-09-22T14:45:21.364Z,23.87
2018-09-22T14:46:31.479Z,23.81
2018-09-22T14:47:41.593Z,23.78
2018-09-22T14:48:51.699Z,23.79
2018-09-22T14:50:02.464Z,23.71
2018-09-22T14:51:12.578Z,23.67
2018-09-22T14:52:22.753Z,23.7
2018-09-22T14:53:32.851Z,23.66
2018-09-22T14:54:42.669Z,23.63
2018-09-22T14:55:52.519Z,23.67
2018-09-22T14:57:02.760Z,23.64
2018-09-22T14:58:12.850Z,23.57
2018-09-22T14:59:22.994Z,23.62
2018-09-22T15:00:33.096Z,23.57
2018-09-22T15:01:43.208Z,23.56
2018-09-22T15:02:53.044Z,23.56
2018-09-22T15:04:02.873Z,23.57
2018-09-22T15:05:12.750Z,23.56
2018-09-22T15:06:22.570Z,23.53
2018-09-22T15:07:32.658Z,23.53
2018-09-22T15:08:42.769Z,23.5
2018-09-22T15:09:52.868Z,23.45
2018-09-22T15:11:03.925Z,23.35
2018-09-22T15:12:13.998Z,23.42
2018-09-22T15:13:24.095Z,23.41
2018-09-22T15:14:34.246Z,23.26
2018-09-22T15:15:44.344Z,23.32
2018-09-22T15:16:54.431Z,23.42
2018-09-22T15:18:04.271Z,23.37
2018-09-22T15:19:14.375Z,23.37
2018-09-22T15:20:24.226Z,23.35
2018-09-22T15:21:34.065Z,23.42
2018-09-22T15:22:44.147Z,23.4
2018-09-22T15:23:54.250Z,23.41
2018-09-22T15:25:04.713Z,23.34
2018-09-22T15:26:14.865Z,23.25
2018-09-22T15:27:24.702Z,23.18
2018-09-22T15:28:34.547Z,23.21
2018-09-22T15:29:44.384Z,23.09
2018-09-22T15:30:54.476Z,22.96
2018-09-22T15:32:04.324Z,22.96
2018-09-22T15:33:14.438Z,22.96
2018-09-22T15:34:24.529Z,22.99
2018-09-22T15:35:34.628Z,23
2018-09-22T15:36:44.799Z,22.94
2018-09-22T15:37:54.423Z,22.86